YUL weather

Montreal / Pierre Elliott Trudeau International Airport
Montréal, Quebec, Canada

Public forecast

Using degrees Celsius for public forecast. Weather courtesy of forecast.io.

METAR (pilot weather report)

Retrieved 2017/07/23 04:00 UTC (13 minutes ago):

CYUL 230400Z 03008KT 15SM SCT140 BKN180 BKN220 19/10 A2984 RMK AC3AC2CI2 SLP105 DENSITY ALT 700FT

TAF (pilot weather forecast)

Retrieved 2017/07/23 03:00 UTC (1 hour ago):

TAF CYUL 230238Z 2303/2324 34007KT P6SM SCT150 BECMG 2303/2305 04010KT FM230500 04008KT P6SM SCT060 BKN150 FM230900 04010KT P6SM BKN100 BKN150 FM231200 04012G22KT P6SM FEW060 BECMG 2315/2317 08012G22KT FM232200 08008KT P6SM BKN150 RMK NXT FCST BY 230600Z